createdAt,value
2023-03-08T00:00:13.441Z,77.07
2023-03-08T00:01:13.406Z,76.50
2023-03-08T00:02:13.329Z,76.59
2023-03-08T00:03:13.254Z,77.07
2023-03-08T00:04:13.388Z,77.36
2023-03-08T00:05:13.135Z,77.17
2023-03-08T00:06:13.080Z,77.17
2023-03-08T00:07:13.018Z,77.07
2023-03-08T00:08:13.070Z,76.50
2023-03-08T00:09:12.894Z,76.50
2023-03-08T00:10:12.843Z,76.78
2023-03-08T00:11:12.764Z,76.59
2023-03-08T00:12:12.730Z,76.69
2023-03-08T00:13:12.645Z,76.59
2023-03-08T00:14:12.587Z,76.59
2023-03-08T00:15:12.529Z,77.17
2023-03-08T00:16:12.497Z,76.50
2023-03-08T00:17:12.414Z,76.50
2023-03-08T00:18:12.346Z,76.31
2023-03-08T00:19:12.285Z,76.50
2023-03-08T00:20:12.226Z,77.07
2023-03-08T00:21:12.174Z,77.17
2023-03-08T00:22:12.100Z,76.97
2023-03-08T00:23:12.048Z,77.17
2023-03-08T00:24:11.990Z,77.07
2023-03-08T00:25:11.918Z,77.26
2023-03-08T00:26:18.419Z,77.17
2023-03-08T00:27:11.800Z,76.21
2023-03-08T00:28:11.849Z,76.40
2023-03-08T00:29:11.740Z,76.50
2023-03-08T00:30:11.626Z,76.50
2023-03-08T00:31:11.628Z,76.59
2023-03-08T00:32:11.518Z,76.40
2023-03-08T00:33:11.437Z,76.59
2023-03-08T00:34:11.375Z,76.78
2023-03-08T00:35:11.314Z,76.69
2023-03-08T00:36:11.272Z,76.50
2023-03-08T00:37:11.196Z,76.40
2023-03-08T00:38:11.138Z,77.36
2023-03-08T00:39:11.084Z,76.59
2023-03-08T00:40:11.019Z,76.31
2023-03-08T00:41:10.963Z,76.69
2023-03-08T00:42:10.892Z,76.78
2023-03-08T00:43:10.938Z,76.97
2023-03-08T00:44:10.783Z,76.50
2023-03-08T00:45:10.716Z,76.40
2023-03-08T00:46:10.669Z,76.31
2023-03-08T00:47:10.590Z,76.59
2023-03-08T00:48:10.534Z,76.78
2023-03-08T00:49:10.468Z,76.50
2023-03-08T00:50:10.413Z,76.40
2023-03-08T00:51:10.347Z,76.40
2023-03-08T00:52:10.291Z,76.40
2023-03-08T00:53:10.231Z,76.40
2023-03-08T00:54:10.169Z,76.50
2023-03-08T00:55:10.117Z,76.50
2023-03-08T00:56:10.050Z,76.78
2023-03-08T00:57:09.994Z,76.21
2023-03-08T00:58:09.933Z,76.50
2023-03-08T00:59:09.929Z,76.50
2023-03-08T01:00:09.815Z,76.40
2023-03-08T01:01:09.787Z,76.78
2023-03-08T01:02:09.686Z,76.21
2023-03-08T01:03:09.625Z,76.31
2023-03-08T01:04:09.592Z,76.40
2023-03-08T01:05:09.507Z,76.50
2023-03-08T01:06:09.456Z,76.50
2023-03-08T01:07:09.385Z,76.69
2023-03-08T01:08:09.335Z,76.31
2023-03-08T01:09:09.256Z,76.31
2023-03-08T01:10:09.196Z,76.59
2023-03-08T01:11:09.139Z,76.50
2023-03-08T01:12:09.081Z,76.50
2023-03-08T01:13:09.020Z,76.21
2023-03-08T01:14:08.968Z,76.21
2023-03-08T01:15:08.901Z,76.31
2023-03-08T01:16:11.133Z,76.40
2023-03-08T01:17:08.775Z,76.50
2023-03-08T01:18:08.716Z,76.50
2023-03-08T01:19:08.648Z,76.69
2023-03-08T01:20:08.587Z,76.50
2023-03-08T01:21:08.528Z,76.78
2023-03-08T01:22:08.471Z,76.50
2023-03-08T01:23:08.405Z,76.40
2023-03-08T01:24:08.349Z,76.40
2023-03-08T01:25:08.282Z,76.78
2023-03-08T01:26:08.226Z,76.50
2023-03-08T01:27:08.168Z,76.50
2023-03-08T01:28:08.103Z,76.50
2023-03-08T01:29:08.042Z,76.50
2023-03-08T01:30:07.990Z,76.40
2023-03-08T01:31:07.926Z,76.40
2023-03-08T01:32:07.922Z,76.40
2023-03-08T01:33:07.808Z,76.12
2023-03-08T01:34:07.754Z,76.50
2023-03-08T01:35:07.681Z,76.31
2023-03-08T01:36:07.684Z,76.21
2023-03-08T01:37:07.561Z,76.69
2023-03-08T01:38:07.498Z,76.21
2023-03-08T01:39:07.441Z,76.50
2023-03-08T01:40:07.374Z,76.59
2023-03-08T01:41:07.322Z,76.78
2023-03-08T01:42:07.404Z,76.40
2023-03-08T01:43:07.193Z,76.78
2023-03-08T01:44:07.137Z,76.31
2023-03-08T01:45:07.072Z,76.69
2023-03-08T01:46:07.012Z,76.50
2023-03-08T01:47:06.945Z,76.50
2023-03-08T01:48:06.898Z,76.69
2023-03-08T01:49:06.842Z,76.31
2023-03-08T01:50:06.765Z,76.78
2023-03-08T01:51:06.715Z,76.40
2023-03-08T01:52:06.642Z,76.21
2023-03-08T01:53:06.585Z,76.59
2023-03-08T01:54:06.616Z,76.31
2023-03-08T01:55:06.473Z,76.40
2023-03-08T01:56:06.406Z,76.40
2023-03-08T01:57:06.339Z,76.12
2023-03-08T01:58:06.295Z,76.59
2023-03-08T01:59:06.225Z,76.78
2023-03-08T02:00:06.161Z,76.21
2023-03-08T02:01:06.258Z,76.31
2023-03-08T02:02:06.039Z,76.50
2023-03-08T02:03:05.982Z,76.31
2023-03-08T02:04:05.923Z,76.69
2023-03-08T02:05:05.854Z,76.78
2023-03-08T02:06:05.795Z,76.31
2023-03-08T02:07:05.733Z,76.50
2023-03-08T02:08:05.679Z,76.40
2023-03-08T02:09:05.612Z,76.59
2023-03-08T02:10:05.555Z,76.78
2023-03-08T02:11:05.489Z,76.40
2023-03-08T02:12:05.431Z,76.78
2023-03-08T02:13:05.370Z,76.78
2023-03-08T02:14:05.312Z,76.31
2023-03-08T02:15:05.261Z,76.40
2023-03-08T02:16:05.194Z,76.40
2023-03-08T02:17:05.128Z,76.31
2023-03-08T02:18:05.073Z,76.40
2023-03-08T02:19:05.005Z,76.31
2023-03-08T02:20:04.963Z,76.31
2023-03-08T02:21:04.887Z,76.78
2023-03-08T02:22:04.826Z,76.40
2023-03-08T02:23:04.786Z,76.69
2023-03-08T02:24:04.701Z,76.31
2023-03-08T02:25:04.646Z,76.50
2023-03-08T02:26:04.596Z,76.69
2023-03-08T02:27:05.447Z,76.50
2023-03-08T02:28:04.458Z,76.78
2023-03-08T02:29:04.404Z,76.78
2023-03-08T02:30:04.357Z,76.50
2023-03-08T02:31:04.293Z,76.40
2023-03-08T02:32:04.283Z,76.21
2023-03-08T02:33:04.163Z,76.31
2023-03-08T02:34:04.104Z,76.40
2023-03-08T02:35:04.038Z,76.31
2023-03-08T02:36:04.028Z,76.21
2023-03-08T02:37:03.920Z,76.40
2023-03-08T02:38:03.854Z,76.40
2023-03-08T02:39:03.800Z,76.50
2023-03-08T02:40:03.743Z,76.50
2023-03-08T02:41:03.676Z,76.21
2023-03-08T02:42:03.620Z,76.40
2023-03-08T02:43:03.554Z,76.50
2023-03-08T02:44:03.498Z,76.21
2023-03-08T02:45:03.429Z,76.40
2023-03-08T02:46:03.382Z,76.40
2023-03-08T02:47:03.323Z,76.78
2023-03-08T02:48:03.250Z,76.31
2023-03-08T02:49:03.193Z,76.31
2023-03-08T02:50:03.124Z,76.78
2023-03-08T02:51:03.070Z,76.50
2023-03-08T02:52:03.012Z,76.50
2023-03-08T02:53:02.947Z,76.40
2023-03-08T02:54:02.888Z,76.31
2023-03-08T02:55:02.827Z,76.40
2023-03-08T02:56:02.766Z,76.78
2023-03-08T02:57:02.701Z,76.31
2023-03-08T02:58:02.639Z,76.78
2023-03-08T02:59:02.597Z,76.03
2023-03-08T03:00:02.516Z,76.78
2023-03-08T03:01:02.556Z,76.59
2023-03-08T03:02:02.403Z,76.40
2023-03-08T03:03:02.345Z,76.78
2023-03-08T03:04:02.277Z,76.40
2023-03-08T03:05:02.220Z,76.40
2023-03-08T03:06:02.188Z,76.31
2023-03-08T03:07:02.096Z,76.31
2023-03-08T03:08:02.104Z,76.50
2023-03-08T03:09:01.975Z,76.59
2023-03-08T03:10:01.910Z,76.21
2023-03-08T03:11:01.854Z,76.69
2023-03-08T03:12:01.801Z,76.59
2023-03-08T03:13:01.749Z,76.59
2023-03-08T03:14:01.671Z,76.12
2023-03-08T03:15:01.610Z,76.21
2023-03-08T03:16:01.574Z,76.31
2023-03-08T03:17:01.486Z,76.50
2023-03-08T03:18:01.432Z,76.31
2023-03-08T03:19:01.361Z,75.93
2023-03-08T03:20:01.300Z,76.69
2023-03-08T03:21:01.241Z,76.69
2023-03-08T03:22:01.173Z,76.69
2023-03-08T03:23:01.116Z,76.78
2023-03-08T03:24:01.072Z,76.40
2023-03-08T03:25:00.997Z,76.31
2023-03-08T03:26:00.932Z,76.31
2023-03-08T03:27:00.870Z,76.40
2023-03-08T03:28:00.815Z,76.21
2023-03-08T03:29:00.763Z,76.69
2023-03-08T03:30:00.685Z,75.74
2023-03-08T03:31:00.752Z,75.93
2023-03-08T03:32:00.569Z,76.21
2023-03-08T03:33:00.503Z,75.55
2023-03-08T03:34:11.044Z,75.84
2023-03-08T03:35:00.392Z,75.84
2023-03-08T03:36:00.378Z,76.31
2023-03-08T03:37:00.264Z,76.12
2023-03-08T03:38:00.201Z,76.03
2023-03-08T03:39:00.161Z,76.12
2023-03-08T03:40:00.118Z,75.93
2023-03-08T03:41:00.020Z,75.64
2023-03-08T03:41:59.962Z,75.93
2023-03-08T03:42:59.897Z,76.12
2023-03-08T03:44:06.459Z,75.74
2023-03-08T03:44:59.776Z,76.03
2023-03-08T03:45:59.737Z,75.93
2023-03-08T03:46:59.652Z,76.03
2023-03-08T03:47:59.595Z,76.59
2023-03-08T03:48:59.542Z,76.21
2023-03-08T03:49:59.479Z,76.12
2023-03-08T03:50:59.413Z,75.84
2023-03-08T03:51:59.357Z,75.55
2023-03-08T03:52:59.297Z,76.12
2023-03-08T03:54:05.867Z,76.40
2023-03-08T03:54:59.177Z,76.03
2023-03-08T03:55:59.128Z,76.03
2023-03-08T03:56:59.060Z,75.93
2023-03-08T03:57:58.988Z,76.03
2023-03-08T03:59:05.472Z,75.93
2023-03-08T03:59:58.874Z,76.31
2023-03-08T04:00:58.813Z,75.84
2023-03-08T04:01:58.752Z,75.93
2023-03-08T04:02:58.721Z,76.69
2023-03-08T04:03:58.743Z,76.50
2023-03-08T04:04:58.567Z,76.31
2023-03-08T04:05:58.512Z,76.50
2023-03-08T04:06:58.456Z,76.50
2023-03-08T04:07:58.390Z,76.40
2023-03-08T04:08:58.329Z,76.50
2023-03-08T04:09:58.266Z,76.78
2023-03-08T04:10:58.206Z,76.78
2023-03-08T04:11:58.218Z,76.69
2023-03-08T04:12:58.088Z,76.69
2023-03-08T04:13:58.020Z,76.59
2023-03-08T04:14:57.975Z,76.40
2023-03-08T04:15:57.991Z,76.50
2023-03-08T04:16:57.841Z,76.40
2023-03-08T04:17:57.782Z,76.31
2023-03-08T04:18:57.717Z,76.12
2023-03-08T04:19:57.663Z,76.31
2023-03-08T04:20:57.600Z,76.59
2023-03-08T04:21:57.538Z,76.50
2023-03-08T04:22:57.477Z,76.59
2023-03-08T04:24:00.123Z,76.21
2023-03-08T04:24:57.355Z,76.21
2023-03-08T04:25:57.291Z,76.40
2023-03-08T04:26:57.234Z,76.50
2023-03-08T04:27:57.283Z,76.50
2023-03-08T04:28:57.113Z,76.31
2023-03-08T04:29:57.048Z,76.50
2023-03-08T04:30:56.987Z,76.31
2023-03-08T04:31:58.501Z,76.21
2023-03-08T04:32:56.864Z,76.50
2023-03-08T04:33:56.804Z,76.40
2023-03-08T04:34:56.746Z,76.40
2023-03-08T04:35:56.782Z,76.40
2023-03-08T04:36:56.619Z,76.31
2023-03-08T04:37:56.568Z,76.69
2023-03-08T04:38:56.504Z,76.78
2023-03-08T04:39:56.437Z,76.50
2023-03-08T04:40:56.376Z,76.69
2023-03-08T04:41:56.316Z,76.78
2023-03-08T04:42:56.259Z,76.78
2023-03-08T04:43:56.205Z,76.69
2023-03-08T04:44:56.137Z,76.78
2023-03-08T04:45:56.077Z,76.69
2023-03-08T04:46:56.148Z,76.69
2023-03-08T04:47:55.956Z,76.69
2023-03-08T04:48:56.140Z,77.07
2023-03-08T04:49:55.828Z,77.17
2023-03-08T04:50:55.775Z,77.17
2023-03-08T04:51:55.707Z,77.26
2023-03-08T04:52:55.654Z,77.17
2023-03-08T04:53:55.592Z,76.88
2023-03-08T04:54:55.533Z,76.97
2023-03-08T04:55:55.464Z,77.36
2023-03-08T04:56:55.407Z,77.07
2023-03-08T04:57:55.347Z,76.97
2023-03-08T04:58:55.287Z,77.26
2023-03-08T04:59:55.234Z,77.26
2023-03-08T05:00:55.166Z,77.17
2023-03-08T05:01:55.123Z,77.17
2023-03-08T05:02:55.049Z,77.17
2023-03-08T05:03:54.981Z,77.36
2023-03-08T05:04:54.980Z,77.17
2023-03-08T05:05:54.871Z,77.36
2023-03-08T05:06:54.804Z,77.55
2023-03-08T05:07:54.740Z,76.88
2023-03-08T05:08:54.679Z,77.64
2023-03-08T05:09:54.637Z,76.97
2023-03-08T05:10:54.558Z,77.26
2023-03-08T05:11:54.496Z,77.26
2023-03-08T05:12:54.439Z,77.17
2023-03-08T05:13:54.372Z,77.64
2023-03-08T05:14:54.314Z,77.36
2023-03-08T05:15:54.296Z,77.17
2023-03-08T05:16:54.190Z,77.17
2023-03-08T05:17:54.157Z,77.07
2023-03-08T05:19:15.057Z,77.26
2023-03-08T05:19:54.018Z,77.07
2023-03-08T05:20:55.530Z,76.97
2023-03-08T05:21:53.883Z,77.17
2023-03-08T05:22:58.858Z,77.26
2023-03-08T05:23:53.785Z,77.17
2023-03-08T05:24:53.707Z,77.07
2023-03-08T05:25:53.641Z,77.26
2023-03-08T05:26:53.584Z,77.26
2023-03-08T05:27:53.522Z,77.26
2023-03-08T05:28:53.463Z,77.07
2023-03-08T05:29:53.400Z,77.07
2023-03-08T05:30:53.345Z,77.17
2023-03-08T05:32:08.053Z,77.17
2023-03-08T05:32:53.219Z,77.55
2023-03-08T05:33:53.157Z,76.78
2023-03-08T05:34:53.097Z,77.07
2023-03-08T05:35:53.090Z,77.36
2023-03-08T05:36:52.970Z,77.17
2023-03-08T05:37:52.927Z,77.17
2023-03-08T05:38:52.851Z,76.97
2023-03-08T05:39:52.787Z,76.93
2023-03-08T05:40:52.745Z,76.97
2023-03-08T05:41:52.670Z,76.97
2023-03-08T05:42:52.613Z,76.97
2023-03-08T05:43:52.557Z,76.97
2023-03-08T05:44:52.521Z,76.97
2023-03-08T05:45:52.466Z,77.07
2023-03-08T05:46:52.368Z,76.97
2023-03-08T05:47:52.388Z,76.97
2023-03-08T05:48:52.244Z,77.26
2023-03-08T05:49:52.184Z,77.64
2023-03-08T05:50:52.118Z,77.17
2023-03-08T05:51:52.062Z,77.26
2023-03-08T05:52:52.001Z,77.17
2023-03-08T05:53:51.940Z,77.26
2023-03-08T05:54:51.874Z,77.17
2023-03-08T05:55:51.815Z,77.17
2023-03-08T05:56:51.773Z,77.07
2023-03-08T05:57:51.689Z,77.26
2023-03-08T05:58:51.630Z,77.17
2023-03-08T05:59:51.615Z,77.07
2023-03-08T06:00:51.514Z,77.73
2023-03-08T06:01:51.631Z,76.97
2023-03-08T06:02:51.511Z,77.36
2023-03-08T06:03:51.334Z,77.17
2023-03-08T06:04:51.274Z,77.26
2023-03-08T06:05:51.210Z,77.17
2023-03-08T06:06:51.143Z,77.07
2023-03-08T06:07:51.082Z,77.07
2023-03-08T06:08:51.029Z,76.97
2023-03-08T06:09:50.963Z,77.45
2023-03-08T06:10:50.905Z,77.55
2023-03-08T06:11:50.907Z,76.97
2023-03-08T06:12:50.777Z,77.45
2023-03-08T06:13:50.717Z,77.17
2023-03-08T06:14:50.688Z,77.17
2023-03-08T06:15:50.595Z,77.17
2023-03-08T06:16:50.546Z,77.07
2023-03-08T06:17:50.468Z,76.97
2023-03-08T06:18:50.417Z,76.97
2023-03-08T06:19:50.385Z,77.07
2023-03-08T06:20:50.292Z,77.07
2023-03-08T06:21:50.230Z,77.07
2023-03-08T06:22:50.169Z,77.26
2023-03-08T06:23:50.110Z,77.26
2023-03-08T06:24:50.193Z,76.97
2023-03-08T06:25:49.985Z,77.73
2023-03-08T06:26:49.922Z,77.73
2023-03-08T06:27:49.868Z,77.36
2023-03-08T06:28:49.810Z,77.36
2023-03-08T06:29:49.745Z,77.55
2023-03-08T06:30:49.754Z,77.55
2023-03-08T06:31:49.623Z,77.64
2023-03-08T06:32:49.567Z,77.45
2023-03-08T06:33:49.507Z,77.36
2023-03-08T06:34:49.450Z,77.55
2023-03-08T06:35:49.427Z,77.36
2023-03-08T06:36:49.325Z,77.45
2023-03-08T06:37:49.262Z,77.55
2023-03-08T06:38:49.212Z,77.45
2023-03-08T06:39:49.148Z,77.55
2023-03-08T06:40:49.086Z,77.45
2023-03-08T06:41:49.020Z,77.45
2023-03-08T06:42:48.968Z,77.45
2023-03-08T06:43:48.942Z,77.45
2023-03-08T06:44:48.844Z,77.45
2023-03-08T06:45:48.811Z,77.17
2023-03-08T06:46:48.723Z,77.26
2023-03-08T06:47:48.656Z,77.26
2023-03-08T06:48:48.594Z,77.45
2023-03-08T06:49:48.536Z,77.45
2023-03-08T06:50:48.528Z,77.64
2023-03-08T06:51:48.426Z,77.26
2023-03-08T06:52:48.356Z,77.17
2023-03-08T06:53:48.328Z,77.26
2023-03-08T06:54:48.238Z,77.17
2023-03-08T06:55:48.173Z,77.55
2023-03-08T06:56:48.112Z,77.45
2023-03-08T06:57:48.047Z,77.26
2023-03-08T06:58:47.997Z,77.26
2023-03-08T06:59:47.929Z,77.45
2023-03-08T07:00:47.871Z,77.36
2023-03-08T07:01:47.808Z,77.64
2023-03-08T07:02:47.741Z,77.73
2023-03-08T07:03:47.688Z,77.64
2023-03-08T07:04:49.593Z,77.64
2023-03-08T07:05:47.564Z,77.83
2023-03-08T07:06:47.499Z,77.64
2023-03-08T07:07:47.458Z,77.64
2023-03-08T07:08:47.380Z,77.45
2023-03-08T07:09:47.318Z,77.55
2023-03-08T07:10:47.266Z,77.64
2023-03-08T07:11:47.190Z,77.45
2023-03-08T07:12:47.142Z,77.55
2023-03-08T07:13:47.073Z,77.45
2023-03-08T07:14:47.025Z,77.55
2023-03-08T07:15:46.976Z,77.26
2023-03-08T07:16:46.889Z,77.64
2023-03-08T07:17:46.825Z,77.55
2023-03-08T07:18:46.768Z,77.45
2023-03-08T07:19:46.703Z,77.55
2023-03-08T07:20:46.643Z,77.26
2023-03-08T07:21:46.585Z,77.07
2023-03-08T07:22:46.524Z,77.36
2023-03-08T07:23:46.471Z,77.36
2023-03-08T07:24:48.711Z,77.36
2023-03-08T07:25:46.345Z,77.17
2023-03-08T07:26:46.290Z,77.73
2023-03-08T07:27:46.241Z,77.64
2023-03-08T07:28:46.158Z,77.17
2023-03-08T07:29:46.104Z,77.83
2023-03-08T07:30:46.034Z,77.55
2023-03-08T07:31:46.003Z,77.83
2023-03-08T07:32:48.689Z,77.45
2023-03-08T07:33:45.873Z,77.73
2023-03-08T07:34:45.790Z,77.55
2023-03-08T07:35:45.779Z,77.55
2023-03-08T07:36:45.670Z,77.55
2023-03-08T07:37:45.619Z,78.02
2023-03-08T07:38:45.553Z,77.73
2023-03-08T07:39:45.603Z,77.64
2023-03-08T07:40:45.439Z,78.30
2023-03-08T07:41:47.478Z,78.40
2023-03-08T07:42:45.325Z,77.92
2023-03-08T07:43:45.253Z,78.40
2023-03-08T07:44:45.186Z,78.21
2023-03-08T07:45:45.130Z,78.30
2023-03-08T07:46:45.148Z,78.21
2023-03-08T07:47:45.008Z,77.92
2023-03-08T07:48:44.951Z,78.02
2023-03-08T07:49:44.885Z,78.21
2023-03-08T07:50:44.827Z,78.21
2023-03-08T07:51:44.768Z,78.21
2023-03-08T07:52:44.702Z,78.21
2023-03-08T07:53:44.645Z,77.83
2023-03-08T07:54:44.582Z,78.11
2023-03-08T07:55:44.566Z,77.83
2023-03-08T07:56:44.464Z,77.83
2023-03-08T07:57:44.405Z,78.02
2023-03-08T07:58:44.346Z,77.55
2023-03-08T07:59:44.276Z,78.21
2023-03-08T08:00:44.218Z,77.92
2023-03-08T08:01:44.158Z,77.73
2023-03-08T08:02:44.197Z,77.83
2023-03-08T08:03:44.090Z,78.40
2023-03-08T08:04:43.972Z,78.02
2023-03-08T08:05:44.052Z,78.11
2023-03-08T08:06:43.854Z,78.50
2023-03-08T08:07:43.799Z,78.50
2023-03-08T08:08:43.730Z,78.69
2023-03-08T08:09:43.699Z,78.40
2023-03-08T08:10:43.616Z,78.40
2023-03-08T08:11:43.592Z,78.30
2023-03-08T08:12:43.484Z,78.21
2023-03-08T08:13:43.425Z,78.21
2023-03-08T08:14:43.366Z,78.40
2023-03-08T08:15:43.301Z,78.40
2023-03-08T08:16:43.315Z,78.59
2023-03-08T08:17:43.188Z,78.21
2023-03-08T08:18:43.118Z,78.40
2023-03-08T08:19:43.078Z,78.30
2023-03-08T08:20:43.005Z,78.21
2023-03-08T08:21:42.957Z,78.40
2023-03-08T08:22:42.886Z,78.78
2023-03-08T08:23:42.824Z,78.69
2023-03-08T08:24:42.758Z,78.69
2023-03-08T08:25:42.699Z,78.78
2023-03-08T08:26:42.634Z,78.78
2023-03-08T08:27:42.584Z,79.06
2023-03-08T08:28:42.518Z,79.06
2023-03-08T08:29:42.455Z,78.88
2023-03-08T08:30:42.397Z,79.06
2023-03-08T08:31:42.415Z,79.25
2023-03-08T08:32:42.315Z,78.88
2023-03-08T08:33:44.034Z,78.97
2023-03-08T08:34:42.154Z,78.97
2023-03-08T08:35:43.553Z,78.78
2023-03-08T08:36:42.025Z,78.88
2023-03-08T08:37:41.960Z,78.88
2023-03-08T08:38:41.907Z,79.06
2023-03-08T08:39:41.837Z,78.88
2023-03-08T08:40:41.780Z,78.88
2023-03-08T08:41:41.727Z,78.69
2023-03-08T08:42:41.692Z,79.44
2023-03-08T08:43:41.623Z,79.44
2023-03-08T08:44:41.545Z,78.97
2023-03-08T08:45:41.494Z,78.69
2023-03-08T08:46:41.415Z,78.59
2023-03-08T08:47:41.356Z,78.78
2023-03-08T08:48:41.300Z,78.97
2023-03-08T08:49:41.235Z,78.97
2023-03-08T08:50:41.172Z,79.06
2023-03-08T08:51:41.113Z,79.06
2023-03-08T08:52:41.081Z,79.16
2023-03-08T08:53:41.009Z,79.16
2023-03-08T08:54:40.952Z,78.97
2023-03-08T08:55:42.172Z,78.97
2023-03-08T08:56:40.811Z,79.25
2023-03-08T08:57:40.754Z,78.88
2023-03-08T08:58:40.697Z,78.78
2023-03-08T08:59:40.635Z,79.06
2023-03-08T09:00:40.564Z,78.88
2023-03-08T09:01:40.515Z,79.35
2023-03-08T09:02:40.525Z,79.35
2023-03-08T09:03:40.412Z,78.97
2023-03-08T09:04:40.519Z,79.25
2023-03-08T09:05:40.256Z,79.63
2023-03-08T09:06:40.203Z,79.63
2023-03-08T09:07:41.042Z,79.16
2023-03-08T09:08:40.113Z,79.25
2023-03-08T09:09:40.022Z,79.35
2023-03-08T09:10:39.956Z,79.63
2023-03-08T09:11:53.789Z,79.73
2023-03-08T09:12:39.863Z,79.73
2023-03-08T09:13:39.776Z,79.73
2023-03-08T09:14:39.724Z,79.44
2023-03-08T09:15:39.685Z,79.54
2023-03-08T09:16:39.662Z,79.54
2023-03-08T09:17:39.528Z,79.83
2023-03-08T09:18:39.469Z,79.73
2023-03-08T09:19:39.453Z,79.63
2023-03-08T09:20:39.353Z,79.44
2023-03-08T09:21:39.302Z,79.25
2023-03-08T09:22:39.230Z,79.35
2023-03-08T09:23:39.173Z,79.54
2023-03-08T09:24:39.117Z,79.44
2023-03-08T09:25:39.054Z,79.54
2023-03-08T09:26:38.993Z,79.54
2023-03-08T09:27:38.933Z,80.21
2023-03-08T09:28:38.876Z,80.21
2023-03-08T09:29:38.805Z,79.63
2023-03-08T09:30:38.748Z,79.44
2023-03-08T09:31:38.823Z,79.63
2023-03-08T09:32:38.662Z,79.73
2023-03-08T09:33:38.569Z,80.02
2023-03-08T09:34:38.506Z,79.92
2023-03-08T09:35:38.490Z,80.21
2023-03-08T09:36:38.391Z,79.92
2023-03-08T09:37:38.341Z,80.40
2023-03-08T09:38:38.277Z,80.11
2023-03-08T09:39:38.204Z,79.92
2023-03-08T09:40:38.146Z,79.92
2023-03-08T09:41:38.092Z,80.21
2023-03-08T09:42:38.025Z,80.21
2023-03-08T09:43:37.967Z,80.02
2023-03-08T09:44:37.897Z,80.02
2023-03-08T09:45:37.925Z,80.11
2023-03-08T09:46:37.780Z,80.02
2023-03-08T09:47:37.765Z,80.21
2023-03-08T09:48:37.660Z,80.11
2023-03-08T09:49:37.601Z,80.02
2023-03-08T09:50:37.538Z,80.77
2023-03-08T09:51:37.477Z,80.30
2023-03-08T09:52:37.416Z,80.30
2023-03-08T09:53:37.433Z,80.49
2023-03-08T09:54:37.295Z,80.30
2023-03-08T09:55:37.227Z,80.30
2023-03-08T09:56:37.171Z,80.77
2023-03-08T09:57:37.229Z,80.58
2023-03-08T09:58:37.041Z,80.40
2023-03-08T09:59:36.989Z,80.30
2023-03-08T10:00:36.975Z,80.11
2023-03-08T10:01:36.863Z,80.58
2023-03-08T10:02:36.816Z,80.58
2023-03-08T10:03:36.764Z,80.40
2023-03-08T10:04:36.734Z,80.21
2023-03-08T10:05:36.619Z,80.58
2023-03-08T10:06:36.563Z,80.40
2023-03-08T10:07:36.494Z,80.40
2023-03-08T10:08:36.432Z,80.21
2023-03-08T10:09:36.374Z,80.77
2023-03-08T10:10:36.309Z,80.40
2023-03-08T10:11:36.254Z,80.77
2023-03-08T10:12:36.186Z,80.87
2023-03-08T10:13:36.158Z,80.87
2023-03-08T10:14:36.070Z,80.68
2023-03-08T10:15:36.017Z,80.77
2023-03-08T10:16:36.030Z,80.58
2023-03-08T10:17:35.886Z,80.58
2023-03-08T10:18:35.830Z,80.77
2023-03-08T10:19:35.776Z,80.21
2023-03-08T10:20:35.704Z,80.40
2023-03-08T10:21:35.645Z,80.30
2023-03-08T10:22:35.588Z,80.68
2023-03-08T10:23:35.524Z,80.77
2023-03-08T10:24:35.471Z,80.87
2023-03-08T10:25:35.401Z,81.25
2023-03-08T10:26:35.344Z,81.16
2023-03-08T10:27:42.067Z,81.54
2023-03-08T10:28:35.229Z,81.35
2023-03-08T10:29:35.163Z,80.68
2023-03-08T10:30:35.236Z,80.87
2023-03-08T10:31:35.563Z,80.68
2023-03-08T10:32:35.137Z,80.49
2023-03-08T10:33:34.921Z,80.68
2023-03-08T10:34:34.855Z,80.58
2023-03-08T10:35:34.853Z,80.68
2023-03-08T10:36:34.739Z,80.58
2023-03-08T10:37:34.676Z,80.40
2023-03-08T10:38:34.617Z,80.96
2023-03-08T10:39:34.564Z,81.35
2023-03-08T10:40:34.490Z,81.44
2023-03-08T10:41:34.437Z,80.68
2023-03-08T10:42:34.388Z,81.54
2023-03-08T10:43:34.379Z,81.54
2023-03-08T10:44:34.260Z,81.54
2023-03-08T10:45:34.193Z,81.92
2023-03-08T10:46:34.254Z,82.20
2023-03-08T10:47:34.069Z,81.82
2023-03-08T10:48:34.009Z,82.20
2023-03-08T10:49:33.961Z,82.10
2023-03-08T10:50:33.887Z,81.73
2023-03-08T10:51:33.856Z,81.92
2023-03-08T10:52:33.769Z,82.01
2023-03-08T10:53:33.715Z,82.58
2023-03-08T10:54:33.649Z,82.68
2023-03-08T10:55:33.591Z,82.58
2023-03-08T10:56:33.556Z,82.87
2023-03-08T10:57:33.469Z,82.39
2023-03-08T10:58:33.414Z,82.68
2023-03-08T10:59:33.348Z,82.58
2023-03-08T11:00:33.281Z,82.29
2023-03-08T11:01:33.222Z,82.10
2023-03-08T11:02:33.168Z,82.58
2023-03-08T11:03:33.101Z,82.58
2023-03-08T11:04:33.061Z,82.58
2023-03-08T11:05:32.982Z,82.87
2023-03-08T11:06:32.926Z,82.68
2023-03-08T11:07:32.888Z,82.20
2023-03-08T11:08:32.799Z,82.49
2023-03-08T11:09:32.738Z,82.49
2023-03-08T11:10:32.706Z,82.87
2023-03-08T11:11:32.629Z,82.39
2023-03-08T11:12:32.595Z,82.49
2023-03-08T11:13:32.493Z,82.68
2023-03-08T11:14:32.512Z,82.58
2023-03-08T11:15:32.394Z,82.20
2023-03-08T11:16:32.370Z,82.58
2023-03-08T11:17:32.257Z,82.49
2023-03-08T11:18:32.191Z,82.68
2023-03-08T11:19:32.132Z,82.77
2023-03-08T11:20:32.073Z,82.58
2023-03-08T11:21:32.008Z,82.68
2023-03-08T11:22:31.942Z,82.68
2023-03-08T11:23:31.896Z,82.58
2023-03-08T11:24:32.005Z,82.49
2023-03-08T11:25:31.769Z,82.39
2023-03-08T11:26:31.707Z,82.39
2023-03-08T11:27:31.694Z,82.68
2023-03-08T11:28:31.636Z,82.96
2023-03-08T11:29:31.525Z,83.15
2023-03-08T11:30:31.457Z,82.96
2023-03-08T11:31:31.497Z,83.34
2023-03-08T11:32:31.475Z,83.34
2023-03-08T11:33:31.619Z,83.15
2023-03-08T11:34:31.232Z,82.87
2023-03-08T11:35:31.221Z,83.34
2023-03-08T11:36:31.107Z,83.15
2023-03-08T11:37:31.050Z,83.44
2023-03-08T11:38:30.980Z,83.15
2023-03-08T11:39:31.015Z,82.39
2023-03-08T11:40:30.854Z,82.58
2023-03-08T11:41:30.795Z,82.39
2023-03-08T11:42:30.738Z,82.29
2023-03-08T11:43:30.677Z,82.49
2023-03-08T11:44:30.612Z,82.20
2023-03-08T11:45:30.553Z,83.15
2023-03-08T11:46:30.548Z,83.06
2023-03-08T11:47:30.434Z,83.06
2023-03-08T11:48:30.398Z,83.34
2023-03-08T11:49:30.307Z,83.34
2023-03-08T11:50:30.248Z,82.68
2023-03-08T11:51:30.189Z,83.34
2023-03-08T11:52:30.129Z,82.96
2023-03-08T11:53:30.077Z,82.96
2023-03-08T11:54:30.007Z,82.58
2023-03-08T11:55:30.047Z,82.20
2023-03-08T11:56:29.878Z,82.96
2023-03-08T11:57:29.818Z,83.25
2023-03-08T11:58:29.759Z,83.25
2023-03-08T11:59:29.702Z,83.15
2023-03-08T12:00:29.635Z,82.77
2023-03-08T12:01:29.584Z,83.06
2023-03-08T12:02:29.514Z,82.77
2023-03-08T12:03:29.559Z,82.96
2023-03-08T12:04:29.450Z,83.53
2023-03-08T12:05:29.462Z,84.01
2023-03-08T12:06:30.414Z,84.10
2023-03-08T12:07:29.231Z,84.58
2023-03-08T12:08:29.198Z,84.10
2023-03-08T12:09:29.233Z,84.48
2023-03-08T12:10:29.120Z,84.39
2023-03-08T12:11:28.986Z,84.01
2023-03-08T12:12:28.918Z,83.91
2023-03-08T12:13:28.851Z,84.29
2023-03-08T12:14:28.816Z,84.29
2023-03-08T12:15:28.796Z,84.39
2023-03-08T12:16:28.820Z,84.48
2023-03-08T12:17:28.648Z,84.58
2023-03-08T12:18:28.545Z,84.67
2023-03-08T12:19:28.487Z,85.34
2023-03-08T12:20:28.423Z,84.95
2023-03-08T12:21:28.373Z,85.24
2023-03-08T12:22:28.334Z,85.05
2023-03-08T12:23:28.252Z,84.48
2023-03-08T12:24:28.229Z,84.48
2023-03-08T12:25:28.117Z,84.67
2023-03-08T12:26:28.105Z,85.24
2023-03-08T12:27:28.027Z,84.48
2023-03-08T12:28:27.938Z,84.58
2023-03-08T12:29:27.922Z,84.58
2023-03-08T12:30:27.833Z,85.24
2023-03-08T12:31:29.174Z,84.86
2023-03-08T12:32:27.958Z,85.15
2023-03-08T12:33:27.827Z,85.62
2023-03-08T12:34:27.579Z,85.62
2023-03-08T12:35:27.520Z,85.53
2023-03-08T12:36:27.567Z,85.34
2023-03-08T12:37:27.434Z,84.95
2023-03-08T12:38:27.363Z,85.24
2023-03-08T12:39:53.125Z,85.72
2023-03-08T12:40:27.259Z,85.53
2023-03-08T12:41:27.213Z,85.81
2023-03-08T12:42:27.100Z,87.24
2023-03-08T12:43:27.047Z,86.86
2023-03-08T12:44:26.992Z,87.14
2023-03-08T12:45:26.918Z,86.10
2023-03-08T12:46:26.887Z,87.14
2023-03-08T12:47:26.861Z,86.86
2023-03-08T12:48:26.765Z,86.86
2023-03-08T12:49:26.743Z,87.05
2023-03-08T12:50:26.647Z,86.67
2023-03-08T12:51:26.579Z,86.10